sensor_id;sensor_type;location;lat;lon;timestamp;temperature;humidity
55771;DHT22;41687;-33.234;-60.334;2022-11-11T00:01:45;21.00;64.90
55771;DHT22;41687;-33.234;-60.334;2022-11-11T00:04:30;21.00;65.00
55771;DHT22;41687;-33.234;-60.334;2022-11-11T00:07:17;21.10;65.10
55771;DHT22;41687;-33.234;-60.334;2022-11-11T00:10:03;21.00;65.60
55771;DHT22;41687;-33.234;-60.334;2022-11-11T00:12:49;21.00;65.60
55771;DHT22;41687;-33.234;-60.334;2022-11-11T00:15:38;21.00;65.40
55771;DHT22;41687;-33.234;-60.334;2022-11-11T00:18:25;21.00;65.70
55771;DHT22;41687;-33.234;-60.334;2022-11-11T00:21:30;21.00;65.60
55771;DHT22;41687;-33.234;-60.334;2022-11-11T00:24:31;20.80;66.00
55771;DHT22;41687;-33.234;-60.334;2022-11-11T00:27:38;20.80;66.30
55771;DHT22;41687;-33.234;-60.334;2022-11-11T00:30:25;20.80;66.20
55771;DHT22;41687;-33.234;-60.334;2022-11-11T00:33:11;20.80;66.20
55771;DHT22;41687;-33.234;-60.334;2022-11-11T00:35:58;20.80;66.60
55771;DHT22;41687;-33.234;-60.334;2022-11-11T00:38:44;20.80;66.80
55771;DHT22;41687;-33.234;-60.334;2022-11-11T00:41:31;20.70;66.90
55771;DHT22;41687;-33.234;-60.334;2022-11-11T00:44:17;20.80;67.00
55771;DHT22;41687;-33.234;-60.334;2022-11-11T00:47:03;20.70;67.40
55771;DHT22;41687;-33.234;-60.334;2022-11-11T00:50:11;20.70;67.60
55771;DHT22;41687;-33.234;-60.334;2022-11-11T00:53:21;20.70;67.90
55771;DHT22;41687;-33.234;-60.334;2022-11-11T00:56:07;20.70;68.60
55771;DHT22;41687;-33.234;-60.334;2022-11-11T00:58:54;20.70;68.40
55771;DHT22;41687;-33.234;-60.334;2022-11-11T01:01:40;20.70;68.40
55771;DHT22;41687;-33.234;-60.334;2022-11-11T01:04:27;20.60;69.00
55771;DHT22;41687;-33.234;-60.334;2022-11-11T01:07:13;20.60;69.20
55771;DHT22;41687;-33.234;-60.334;2022-11-11T01:09:59;20.50;69.00
55771;DHT22;41687;-33.234;-60.334;2022-11-11T01:12:45;20.50;68.80
55771;DHT22;41687;-33.234;-60.334;2022-11-11T01:15:33;20.40;69.00
55771;DHT22;41687;-33.234;-60.334;2022-11-11T01:18:21;20.30;69.10
55771;DHT22;41687;-33.234;-60.334;2022-11-11T01:23:56;20.40;68.40
55771;DHT22;41687;-33.234;-60.334;2022-11-11T01:26:43;20.40;68.40
55771;DHT22;41687;-33.234;-60.334;2022-11-11T01:29:29;20.40;68.50
55771;DHT22;41687;-33.234;-60.334;2022-11-11T01:32:16;20.40;68.00
55771;DHT22;41687;-33.234;-60.334;2022-11-11T01:35:02;20.40;68.00
55771;DHT22;41687;-33.234;-60.334;2022-11-11T01:37:50;20.40;68.40
55771;DHT22;41687;-33.234;-60.334;2022-11-11T01:40:47;20.50;68.60
55771;DHT22;41687;-33.234;-60.334;2022-11-11T01:43:34;20.40;69.20
55771;DHT22;41687;-33.234;-60.334;2022-11-11T01:52:34;20.50;67.50
55771;DHT22;41687;-33.234;-60.334;2022-11-11T01:55:22;20.50;67.60
55771;DHT22;41687;-33.234;-60.334;2022-11-11T01:58:12;20.40;67.70
55771;DHT22;41687;-33.234;-60.334;2022-11-11T02:01:01;20.40;67.70
55771;DHT22;41687;-33.234;-60.334;2022-11-11T02:03:49;20.40;67.60
55771;DHT22;41687;-33.234;-60.334;2022-11-11T02:07:01;20.30;67.70
55771;DHT22;41687;-33.234;-60.334;2022-11-11T02:09:51;20.30;67.60
55771;DHT22;41687;-33.234;-60.334;2022-11-11T02:12:37;20.30;67.40
55771;DHT22;41687;-33.234;-60.334;2022-11-11T02:15:42;20.30;67.20
55771;DHT22;41687;-33.234;-60.334;2022-11-11T02:18:31;20.20;67.00
55771;DHT22;41687;-33.234;-60.334;2022-11-11T02:21:32;20.20;66.90
55771;DHT22;41687;-33.234;-60.334;2022-11-11T02:24:21;20.20;67.40
55771;DHT22;41687;-33.234;-60.334;2022-11-11T02:27:11;20.20;66.90
55771;DHT22;41687;-33.234;-60.334;2022-11-11T02:30:00;20.20;67.00
55771;DHT22;41687;-33.234;-60.334;2022-11-11T02:32:49;20.10;66.80
55771;DHT22;41687;-33.234;-60.334;2022-11-11T02:35:40;20.10;66.70
55771;DHT22;41687;-33.234;-60.334;2022-11-11T02:38:28;20.10;66.70
55771;DHT22;41687;-33.234;-60.334;2022-11-11T02:41:16;20.10;66.60
55771;DHT22;41687;-33.234;-60.334;2022-11-11T02:44:20;20.00;67.00
55771;DHT22;41687;-33.234;-60.334;2022-11-11T02:47:06;20.00;66.80
55771;DHT22;41687;-33.234;-60.334;2022-11-11T02:49:53;20.00;66.70
55771;DHT22;41687;-33.234;-60.334;2022-11-11T02:52:39;20.00;66.50
55771;DHT22;41687;-33.234;-60.334;2022-11-11T02:55:25;19.90;66.50
55771;DHT22;41687;-33.234;-60.334;2022-11-11T02:58:13;19.90;66.70
55771;DHT22;41687;-33.234;-60.334;2022-11-11T03:00:59;19.90;66.50
55771;DHT22;41687;-33.234;-60.334;2022-11-11T03:03:45;19.80;66.10
55771;DHT22;41687;-33.234;-60.334;2022-11-11T03:06:32;19.90;65.90
55771;DHT22;41687;-33.234;-60.334;2022-11-11T03:09:19;19.80;66.00
55771;DHT22;41687;-33.234;-60.334;2022-11-11T03:12:05;19.80;66.20
55771;DHT22;41687;-33.234;-60.334;2022-11-11T03:14:51;19.70;66.20
55771;DHT22;41687;-33.234;-60.334;2022-11-11T03:17:39;19.70;66.20
55771;DHT22;41687;-33.234;-60.334;2022-11-11T03:20:26;19.60;66.00
55771;DHT22;41687;-33.234;-60.334;2022-11-11T03:23:30;19.60;66.10
55771;DHT22;41687;-33.234;-60.334;2022-11-11T03:26:17;19.60;66.00
55771;DHT22;41687;-33.234;-60.334;2022-11-11T03:29:04;19.60;65.80
55771;DHT22;41687;-33.234;-60.334;2022-11-11T03:31:51;19.60;65.90
55771;DHT22;41687;-33.234;-60.334;2022-11-11T03:34:37;19.60;66.40
55771;DHT22;41687;-33.234;-60.334;2022-11-11T03:37:23;19.50;67.20
55771;DHT22;41687;-33.234;-60.334;2022-11-11T03:40:28;19.40;67.90
55771;DHT22;41687;-33.234;-60.334;2022-11-11T03:43:16;19.30;68.60
55771;DHT22;41687;-33.234;-60.334;2022-11-11T03:46:04;19.20;68.90
55771;DHT22;41687;-33.234;-60.334;2022-11-11T03:48:51;19.30;68.90
55771;DHT22;41687;-33.234;-60.334;2022-11-11T03:51:37;19.20;69.30
55771;DHT22;41687;-33.234;-60.334;2022-11-11T03:54:24;19.10;69.10
55771;DHT22;41687;-33.234;-60.334;2022-11-11T03:57:10;19.10;69.00
55771;DHT22;41687;-33.234;-60.334;2022-11-11T04:00:17;19.10;69.20
55771;DHT22;41687;-33.234;-60.334;2022-11-11T04:03:17;19.10;69.20
55771;DHT22;41687;-33.234;-60.334;2022-11-11T04:06:21;19.10;69.40
55771;DHT22;41687;-33.234;-60.334;2022-11-11T04:09:25;19.10;68.80
55771;DHT22;41687;-33.234;-60.334;2022-11-11T04:12:31;19.10;68.60
55771;DHT22;41687;-33.234;-60.334;2022-11-11T04:15:38;19.00;68.40
55771;DHT22;41687;-33.234;-60.334;2022-11-11T04:18:43;19.00;68.70
55771;DHT22;41687;-33.234;-60.334;2022-11-11T04:21:47;18.90;68.80
55771;DHT22;41687;-33.234;-60.334;2022-11-11T04:24:35;18.90;69.00
55771;DHT22;41687;-33.234;-60.334;2022-11-11T04:27:39;19.00;68.90
55771;DHT22;41687;-33.234;-60.334;2022-11-11T04:30:26;19.00;68.80
55771;DHT22;41687;-33.234;-60.334;2022-11-11T04:33:12;19.00;68.90
55771;DHT22;41687;-33.234;-60.334;2022-11-11T04:35:58;18.90;68.90
55771;DHT22;41687;-33.234;-60.334;2022-11-11T04:38:44;18.90;68.80
55771;DHT22;41687;-33.234;-60.334;2022-11-11T04:41:49;18.90;68.90
55771;DHT22;41687;-33.234;-60.334;2022-11-11T04:44:35;18.90;69.40
55771;DHT22;41687;-33.234;-60.334;2022-11-11T04:50:43;18.80;71.50
55771;DHT22;41687;-33.234;-60.334;2022-11-11T04:53:29;18.80;70.90
55771;DHT22;41687;-33.234;-60.334;2022-11-11T04:56:15;18.70;70.70
55771;DHT22;41687;-33.234;-60.334;2022-11-11T04:59:20;18.70;71.30
55771;DHT22;41687;-33.234;-60.334;2022-11-11T05:02:07;18.60;71.40
55771;DHT22;41687;-33.234;-60.334;2022-11-11T05:05:11;18.60;71.30
55771;DHT22;41687;-33.234;-60.334;2022-11-11T05:07:57;18.60;71.60
55771;DHT22;41687;-33.234;-60.334;2022-11-11T05:11:02;18.50;71.60
55771;DHT22;41687;-33.234;-60.334;2022-11-11T05:13:49;18.50;71.50
55771;DHT22;41687;-33.234;-60.334;2022-11-11T05:16:56;18.50;71.30
55771;DHT22;41687;-33.234;-60.334;2022-11-11T05:20:03;18.50;71.30
55771;DHT22;41687;-33.234;-60.334;2022-11-11T05:23:12;18.40;71.30
55771;DHT22;41687;-33.234;-60.334;2022-11-11T05:25:58;18.40;71.50
55771;DHT22;41687;-33.234;-60.334;2022-11-11T05:28:44;18.40;71.90
55771;DHT22;41687;-33.234;-60.334;2022-11-11T05:31:31;18.40;71.70
55771;DHT22;41687;-33.234;-60.334;2022-11-11T05:34:17;18.40;72.10
55771;DHT22;41687;-33.234;-60.334;2022-11-11T05:37:04;18.40;71.90
55771;DHT22;41687;-33.234;-60.334;2022-11-11T05:39:50;18.40;72.40
55771;DHT22;41687;-33.234;-60.334;2022-11-11T05:42:42;18.40;72.30
55771;DHT22;41687;-33.234;-60.334;2022-11-11T05:45:28;18.40;72.90
55771;DHT22;41687;-33.234;-60.334;2022-11-11T05:48:15;18.40;72.40
55771;DHT22;41687;-33.234;-60.334;2022-11-11T05:51:01;18.40;72.80
55771;DHT22;41687;-33.234;-60.334;2022-11-11T05:53:47;18.40;72.70
55771;DHT22;41687;-33.234;-60.334;2022-11-11T05:56:33;18.40;72.70
55771;DHT22;41687;-33.234;-60.334;2022-11-11T05:59:19;18.30;73.70
55771;DHT22;41687;-33.234;-60.334;2022-11-11T06:02:06;18.30;73.80
55771;DHT22;41687;-33.234;-60.334;2022-11-11T06:04:52;18.20;74.20
55771;DHT22;41687;-33.234;-60.334;2022-11-11T06:07:39;18.20;74.10
55771;DHT22;41687;-33.234;-60.334;2022-11-11T06:10:26;18.10;74.80
55771;DHT22;41687;-33.234;-60.334;2022-11-11T06:13:15;18.10;74.50
55771;DHT22;41687;-33.234;-60.334;2022-11-11T06:16:01;18.10;74.80
55771;DHT22;41687;-33.234;-60.334;2022-11-11T06:18:48;18.20;74.90
55771;DHT22;41687;-33.234;-60.334;2022-11-11T06:21:35;18.10;75.00
55771;DHT22;41687;-33.234;-60.334;2022-11-11T06:24:41;18.00;75.30
55771;DHT22;41687;-33.234;-60.334;2022-11-11T06:27:27;18.00;75.60
55771;DHT22;41687;-33.234;-60.334;2022-11-11T06:30:13;18.00;75.80
55771;DHT22;41687;-33.234;-60.334;2022-11-11T06:32:59;17.90;76.00
55771;DHT22;41687;-33.234;-60.334;2022-11-11T06:35:45;17.90;76.10
55771;DHT22;41687;-33.234;-60.334;2022-11-11T06:38:32;17.90;75.90
55771;DHT22;41687;-33.234;-60.334;2022-11-11T06:41:18;17.90;75.80
55771;DHT22;41687;-33.234;-60.334;2022-11-11T06:44:05;17.80;76.30
55771;DHT22;41687;-33.234;-60.334;2022-11-11T06:46:51;17.80;76.60
55771;DHT22;41687;-33.234;-60.334;2022-11-11T06:49:38;17.80;76.70
55771;DHT22;41687;-33.234;-60.334;2022-11-11T06:52:24;17.80;77.30
55771;DHT22;41687;-33.234;-60.334;2022-11-11T06:55:10;17.80;77.30
55771;DHT22;41687;-33.234;-60.334;2022-11-11T06:58:07;17.70;77.50
55771;DHT22;41687;-33.234;-60.334;2022-11-11T07:00:53;17.70;78.10
55771;DHT22;41687;-33.234;-60.334;2022-11-11T07:03:39;17.70;77.70
55771;DHT22;41687;-33.234;-60.334;2022-11-11T07:06:26;17.70;77.70
55771;DHT22;41687;-33.234;-60.334;2022-11-11T07:09:12;17.70;77.70
55771;DHT22;41687;-33.234;-60.334;2022-11-11T07:11:58;17.70;78.30
55771;DHT22;41687;-33.234;-60.334;2022-11-11T07:14:44;17.70;78.40
55771;DHT22;41687;-33.234;-60.334;2022-11-11T07:17:31;17.70;78.50
55771;DHT22;41687;-33.234;-60.334;2022-11-11T07:20:17;17.70;78.70
55771;DHT22;41687;-33.234;-60.334;2022-11-11T07:23:03;17.70;78.90
55771;DHT22;41687;-33.234;-60.334;2022-11-11T07:25:49;17.60;79.10
55771;DHT22;41687;-33.234;-60.334;2022-11-11T07:28:37;17.60;79.20
55771;DHT22;41687;-33.234;-60.334;2022-11-11T07:31:23;17.60;79.70
55771;DHT22;41687;-33.234;-60.334;2022-11-11T07:34:10;17.60;79.80
55771;DHT22;41687;-33.234;-60.334;2022-11-11T07:36:55;17.50;79.80
55771;DHT22;41687;-33.234;-60.334;2022-11-11T07:39:42;17.50;80.30
55771;DHT22;41687;-33.234;-60.334;2022-11-11T07:42:28;17.50;80.20
55771;DHT22;41687;-33.234;-60.334;2022-11-11T07:45:14;17.40;79.80
55771;DHT22;41687;-33.234;-60.334;2022-11-11T07:48:00;17.40;79.60
55771;DHT22;41687;-33.234;-60.334;2022-11-11T07:50:47;17.30;79.40
55771;DHT22;41687;-33.234;-60.334;2022-11-11T07:53:33;17.30;79.70
55771;DHT22;41687;-33.234;-60.334;2022-11-11T07:56:20;17.30;80.00
55771;DHT22;41687;-33.234;-60.334;2022-11-11T07:59:06;17.20;79.70
55771;DHT22;41687;-33.234;-60.334;2022-11-11T08:01:52;17.20;80.10
55771;DHT22;41687;-33.234;-60.334;2022-11-11T08:04:38;17.20;80.40
55771;DHT22;41687;-33.234;-60.334;2022-11-11T08:07:25;17.20;80.60
55771;DHT22;41687;-33.234;-60.334;2022-11-11T08:10:11;17.20;80.60
55771;DHT22;41687;-33.234;-60.334;2022-11-11T08:12:58;17.20;80.70
55771;DHT22;41687;-33.234;-60.334;2022-11-11T08:16:02;17.20;80.90
55771;DHT22;41687;-33.234;-60.334;2022-11-11T08:18:51;17.20;80.50
55771;DHT22;41687;-33.234;-60.334;2022-11-11T08:21:38;17.20;80.50
55771;DHT22;41687;-33.234;-60.334;2022-11-11T08:24:25;17.20;80.80
55771;DHT22;41687;-33.234;-60.334;2022-11-11T08:27:11;17.20;80.90
55771;DHT22;41687;-33.234;-60.334;2022-11-11T08:29:57;17.20;80.90
55771;DHT22;41687;-33.234;-60.334;2022-11-11T08:32:43;17.20;81.20
55771;DHT22;41687;-33.234;-60.334;2022-11-11T08:35:30;17.20;80.90
55771;DHT22;41687;-33.234;-60.334;2022-11-11T08:38:17;17.10;81.00
55771;DHT22;41687;-33.234;-60.334;2022-11-11T08:41:04;17.10;81.10
55771;DHT22;41687;-33.234;-60.334;2022-11-11T08:43:54;17.00;81.00
55771;DHT22;41687;-33.234;-60.334;2022-11-11T08:46:42;17.00;81.40
55771;DHT22;41687;-33.234;-60.334;2022-11-11T08:49:28;17.00;81.50
55771;DHT22;41687;-33.234;-60.334;2022-11-11T08:52:15;17.00;81.40
55771;DHT22;41687;-33.234;-60.334;2022-11-11T08:55:01;17.00;81.10
55771;DHT22;41687;-33.234;-60.334;2022-11-11T08:57:48;17.00;81.10
55771;DHT22;41687;-33.234;-60.334;2022-11-11T09:00:42;17.00;80.70
55771;DHT22;41687;-33.234;-60.334;2022-11-11T09:03:28;17.00;80.90
55771;DHT22;41687;-33.234;-60.334;2022-11-11T09:06:15;16.90;80.60
55771;DHT22;41687;-33.234;-60.334;2022-11-11T09:09:01;16.90;80.40
55771;DHT22;41687;-33.234;-60.334;2022-11-11T09:11:47;16.90;80.70
55771;DHT22;41687;-33.234;-60.334;2022-11-11T09:14:33;16.80;81.30
55771;DHT22;41687;-33.234;-60.334;2022-11-11T09:17:20;16.90;80.70
55771;DHT22;41687;-33.234;-60.334;2022-11-11T09:20:07;16.90;80.40
55771;DHT22;41687;-33.234;-60.334;2022-11-11T09:22:53;16.90;80.40
55771;DHT22;41687;-33.234;-60.334;2022-11-11T09:25:39;16.90;80.40
55771;DHT22;41687;-33.234;-60.334;2022-11-11T09:28:26;16.90;80.70
55771;DHT22;41687;-33.234;-60.334;2022-11-11T09:31:12;17.00;80.60
55771;DHT22;41687;-33.234;-60.334;2022-11-11T09:33:58;17.10;81.00
55771;DHT22;41687;-33.234;-60.334;2022-11-11T09:36:44;17.20;81.00
55771;DHT22;41687;-33.234;-60.334;2022-11-11T09:39:31;17.20;80.90
55771;DHT22;41687;-33.234;-60.334;2022-11-11T09:42:17;17.20;80.30
55771;DHT22;41687;-33.234;-60.334;2022-11-11T09:51:35;17.50;79.50
55771;DHT22;41687;-33.234;-60.334;2022-11-11T09:55:01;17.60;79.30
55771;DHT22;41687;-33.234;-60.334;2022-11-11T09:58:03;17.80;79.60
55771;DHT22;41687;-33.234;-60.334;2022-11-11T10:01:11;17.80;79.30
55771;DHT22;41687;-33.234;-60.334;2022-11-11T10:04:29;18.00;78.90
55771;DHT22;41687;-33.234;-60.334;2022-11-11T10:07:47;18.10;79.60
55771;DHT22;41687;-33.234;-60.334;2022-11-11T10:10:47;18.30;79.20
55771;DHT22;41687;-33.234;-60.334;2022-11-11T10:13:35;18.60;77.60
55771;DHT22;41687;-33.234;-60.334;2022-11-11T10:20:02;18.90;76.50
55771;DHT22;41687;-33.234;-60.334;2022-11-11T10:23:17;19.00;76.10
55771;DHT22;41687;-33.234;-60.334;2022-11-11T10:26:34;19.10;75.80
55771;DHT22;41687;-33.234;-60.334;2022-11-11T10:29:24;19.00;76.10
55771;DHT22;41687;-33.234;-60.334;2022-11-11T10:32:24;18.90;75.90
55771;DHT22;41687;-33.234;-60.334;2022-11-11T10:35:21;19.00;76.60
55771;DHT22;41687;-33.234;-60.334;2022-11-11T10:41:17;19.10;75.80
55771;DHT22;41687;-33.234;-60.334;2022-11-11T10:44:26;19.20;76.10
55771;DHT22;41687;-33.234;-60.334;2022-11-11T10:53:52;19.80;74.60
55771;DHT22;41687;-33.234;-60.334;2022-11-11T10:56:36;19.90;74.10
55771;DHT22;41687;-33.234;-60.334;2022-11-11T10:59:46;20.00;74.00
55771;DHT22;41687;-33.234;-60.334;2022-11-11T11:05:51;20.30;73.20
55771;DHT22;41687;-33.234;-60.334;2022-11-11T11:08:45;20.30;72.80
55771;DHT22;41687;-33.234;-60.334;2022-11-11T11:12:00;20.40;72.80
55771;DHT22;41687;-33.234;-60.334;2022-11-11T11:14:50;20.40;72.90
55771;DHT22;41687;-33.234;-60.334;2022-11-11T11:17:55;20.50;73.10
55771;DHT22;41687;-33.234;-60.334;2022-11-11T11:21:02;20.50;73.70
55771;DHT22;41687;-33.234;-60.334;2022-11-11T11:23:48;20.60;73.00
55771;DHT22;41687;-33.234;-60.334;2022-11-11T11:26:46;20.90;72.60
55771;DHT22;41687;-33.234;-60.334;2022-11-11T11:29:41;21.40;71.90
55771;DHT22;41687;-33.234;-60.334;2022-11-11T11:32:31;21.70;71.60
55771;DHT22;41687;-33.234;-60.334;2022-11-11T11:35:37;22.00;69.90
55771;DHT22;41687;-33.234;-60.334;2022-11-11T11:38:40;22.10;69.10
55771;DHT22;41687;-33.234;-60.334;2022-11-11T11:41:45;22.10;68.10
55771;DHT22;41687;-33.234;-60.334;2022-11-11T11:44:36;21.80;67.60
55771;DHT22;41687;-33.234;-60.334;2022-11-11T11:47:27;21.50;68.70
55771;DHT22;41687;-33.234;-60.334;2022-11-11T11:50:38;21.10;69.00
55771;DHT22;41687;-33.234;-60.334;2022-11-11T11:56:44;21.90;68.40
55771;DHT22;41687;-33.234;-60.334;2022-11-11T12:21:21;24.20;62.00
55771;DHT22;41687;-33.234;-60.334;2022-11-11T12:39:11;25.80;60.40
55771;DHT22;41687;-33.234;-60.334;2022-11-11T12:43:02;25.30;58.30
55771;DHT22;41687;-33.234;-60.334;2022-11-11T12:49:25;24.40;58.80
55771;DHT22;41687;-33.234;-60.334;2022-11-11T12:52:37;24.60;59.20
55771;DHT22;41687;-33.234;-60.334;2022-11-11T13:05:28;25.10;58.90
55771;DHT22;41687;-33.234;-60.334;2022-11-11T13:11:37;25.50;57.40
55771;DHT22;41687;-33.234;-60.334;2022-11-11T13:17:32;25.70;57.80
55771;DHT22;41687;-33.234;-60.334;2022-11-11T13:20:49;26.00;59.40
55771;DHT22;41687;-33.234;-60.334;2022-11-11T13:23:36;26.60;56.70
55771;DHT22;41687;-33.234;-60.334;2022-11-11T13:26:36;26.80;57.50
55771;DHT22;41687;-33.234;-60.334;2022-11-11T13:29:43;26.70;54.60
55771;DHT22;41687;-33.234;-60.334;2022-11-11T13:32:42;26.80;54.40
55771;DHT22;41687;-33.234;-60.334;2022-11-11T13:35:37;27.10;55.00
55771;DHT22;41687;-33.234;-60.334;2022-11-11T13:44:50;26.80;54.20
55771;DHT22;41687;-33.234;-60.334;2022-11-11T13:47:37;26.10;55.50
55771;DHT22;41687;-33.234;-60.334;2022-11-11T13:50:35;25.90;57.10
55771;DHT22;41687;-33.234;-60.334;2022-11-11T13:53:30;25.90;55.70
55771;DHT22;41687;-33.234;-60.334;2022-11-11T14:02:27;26.00;56.10
55771;DHT22;41687;-33.234;-60.334;2022-11-11T14:05:16;26.00;53.20
55771;DHT22;41687;-33.234;-60.334;2022-11-11T14:08:03;26.40;56.00
55771;DHT22;41687;-33.234;-60.334;2022-11-11T14:10:57;26.70;55.40
55771;DHT22;41687;-33.234;-60.334;2022-11-11T14:13:44;27.30;53.60
55771;DHT22;41687;-33.234;-60.334;2022-11-11T14:19:26;28.10;52.20
55771;DHT22;41687;-33.234;-60.334;2022-11-11T14:22:33;27.90;53.50
55771;DHT22;41687;-33.234;-60.334;2022-11-11T14:25:27;28.80;49.50
55771;DHT22;41687;-33.234;-60.334;2022-11-11T14:28:32;29.50;49.70
55771;DHT22;41687;-33.234;-60.334;2022-11-11T14:34:17;29.80;50.30
55771;DHT22;41687;-33.234;-60.334;2022-11-11T14:40:36;30.00;48.10
55771;DHT22;41687;-33.234;-60.334;2022-11-11T14:46:17;30.30;46.30
55771;DHT22;41687;-33.234;-60.334;2022-11-11T14:49:04;29.90;50.50
55771;DHT22;41687;-33.234;-60.334;2022-11-11T14:51:53;29.60;50.30
55771;DHT22;41687;-33.234;-60.334;2022-11-11T14:58:09;30.10;46.40
55771;DHT22;41687;-33.234;-60.334;2022-11-11T15:01:18;29.90;44.60
55771;DHT22;41687;-33.234;-60.334;2022-11-11T15:04:05;29.50;45.70
55771;DHT22;41687;-33.234;-60.334;2022-11-11T15:06:58;29.00;47.70
55771;DHT22;41687;-33.234;-60.334;2022-11-11T15:20:00;29.60;45.70
55771;DHT22;41687;-33.234;-60.334;2022-11-11T15:26:20;29.60;44.60
55771;DHT22;41687;-33.234;-60.334;2022-11-11T15:29:26;29.60;45.00
55771;DHT22;41687;-33.234;-60.334;2022-11-11T15:32:34;29.70;43.60
55771;DHT22;41687;-33.234;-60.334;2022-11-11T15:35:34;30.20;46.60
55771;DHT22;41687;-33.234;-60.334;2022-11-11T15:38:21;29.80;45.40
55771;DHT22;41687;-33.234;-60.334;2022-11-11T15:41:23;29.50;44.20
55771;DHT22;41687;-33.234;-60.334;2022-11-11T15:44:18;29.30;44.10
55771;DHT22;41687;-33.234;-60.334;2022-11-11T15:47:05;29.80;44.90
55771;DHT22;41687;-33.234;-60.334;2022-11-11T15:49:52;29.70;46.50
55771;DHT22;41687;-33.234;-60.334;2022-11-11T15:52:38;30.00;47.60
55771;DHT22;41687;-33.234;-60.334;2022-11-11T15:55:27;30.10;46.80
55771;DHT22;41687;-33.234;-60.334;2022-11-11T15:58:27;29.80;46.00
55771;DHT22;41687;-33.234;-60.334;2022-11-11T16:01:15;29.40;43.70
55771;DHT22;41687;-33.234;-60.334;2022-11-11T16:04:03;29.60;45.40
55771;DHT22;41687;-33.234;-60.334;2022-11-11T16:06:53;29.20;46.10
55771;DHT22;41687;-33.234;-60.334;2022-11-11T16:09:40;29.20;46.80
55771;DHT22;41687;-33.234;-60.334;2022-11-11T16:12:32;29.60;45.80
55771;DHT22;41687;-33.234;-60.334;2022-11-11T16:15:25;29.70;44.90
55771;DHT22;41687;-33.234;-60.334;2022-11-11T16:18:36;29.60;45.90
55771;DHT22;41687;-33.234;-60.334;2022-11-11T16:21:35;29.10;43.50
55771;DHT22;41687;-33.234;-60.334;2022-11-11T16:24:26;29.40;46.20
55771;DHT22;41687;-33.234;-60.334;2022-11-11T16:27:21;29.50;44.90
55771;DHT22;41687;-33.234;-60.334;2022-11-11T16:30:25;29.10;44.10
55771;DHT22;41687;-33.234;-60.334;2022-11-11T16:33:32;29.00;43.10
55771;DHT22;41687;-33.234;-60.334;2022-11-11T16:36:19;28.60;42.70
55771;DHT22;41687;-33.234;-60.334;2022-11-11T16:39:19;28.40;44.00
55771;DHT22;41687;-33.234;-60.334;2022-11-11T16:42:26;28.40;43.60
55771;DHT22;41687;-33.234;-60.334;2022-11-11T16:45:21;28.60;43.80
55771;DHT22;41687;-33.234;-60.334;2022-11-11T16:51:24;28.80;44.80
55771;DHT22;41687;-33.234;-60.334;2022-11-11T16:54:21;28.80;45.00
55771;DHT22;41687;-33.234;-60.334;2022-11-11T16:57:09;29.10;45.00
55771;DHT22;41687;-33.234;-60.334;2022-11-11T16:59:58;29.20;45.20
55771;DHT22;41687;-33.234;-60.334;2022-11-11T17:02:45;29.50;45.70
55771;DHT22;41687;-33.234;-60.334;2022-11-11T17:08:42;29.50;42.70
55771;DHT22;41687;-33.234;-60.334;2022-11-11T17:14:26;29.40;42.50
55771;DHT22;41687;-33.234;-60.334;2022-11-11T17:17:13;29.50;44.50
55771;DHT22;41687;-33.234;-60.334;2022-11-11T17:22:55;29.40;42.70
55771;DHT22;41687;-33.234;-60.334;2022-11-11T17:25:42;29.10;42.70
55771;DHT22;41687;-33.234;-60.334;2022-11-11T17:28:33;28.90;42.40
55771;DHT22;41687;-33.234;-60.334;2022-11-11T17:31:20;29.00;42.50
55771;DHT22;41687;-33.234;-60.334;2022-11-11T17:34:09;28.70;43.20
55771;DHT22;41687;-33.234;-60.334;2022-11-11T17:36:55;28.70;45.10
55771;DHT22;41687;-33.234;-60.334;2022-11-11T17:39:41;28.80;44.50
55771;DHT22;41687;-33.234;-60.334;2022-11-11T17:42:31;28.90;44.30
55771;DHT22;41687;-33.234;-60.334;2022-11-11T17:45:17;28.80;44.20
55771;DHT22;41687;-33.234;-60.334;2022-11-11T17:48:03;29.00;44.40
55771;DHT22;41687;-33.234;-60.334;2022-11-11T17:50:49;28.90;43.70
55771;DHT22;41687;-33.234;-60.334;2022-11-11T17:53:36;29.10;44.80
55771;DHT22;41687;-33.234;-60.334;2022-11-11T17:56:22;29.10;44.50
55771;DHT22;41687;-33.234;-60.334;2022-11-11T17:59:11;29.20;44.50
55771;DHT22;41687;-33.234;-60.334;2022-11-11T18:01:57;29.10;43.50
55771;DHT22;41687;-33.234;-60.334;2022-11-11T18:04:43;29.00;43.40
55771;DHT22;41687;-33.234;-60.334;2022-11-11T18:07:29;28.80;41.00
55771;DHT22;41687;-33.234;-60.334;2022-11-11T18:10:16;28.80;43.40
55771;DHT22;41687;-33.234;-60.334;2022-11-11T18:13:02;28.90;43.70
55771;DHT22;41687;-33.234;-60.334;2022-11-11T18:15:48;28.80;43.10
55771;DHT22;41687;-33.234;-60.334;2022-11-11T18:18:34;28.60;43.10
55771;DHT22;41687;-33.234;-60.334;2022-11-11T18:21:28;28.70;43.20
55771;DHT22;41687;-33.234;-60.334;2022-11-11T18:24:14;28.70;43.80
55771;DHT22;41687;-33.234;-60.334;2022-11-11T18:27:00;28.70;43.00
55771;DHT22;41687;-33.234;-60.334;2022-11-11T18:29:46;28.60;43.40
55771;DHT22;41687;-33.234;-60.334;2022-11-11T18:32:33;28.60;43.80
55771;DHT22;41687;-33.234;-60.334;2022-11-11T18:35:19;28.50;43.90
55771;DHT22;41687;-33.234;-60.334;2022-11-11T18:38:05;28.60;45.10
55771;DHT22;41687;-33.234;-60.334;2022-11-11T18:40:51;28.70;44.50
55771;DHT22;41687;-33.234;-60.334;2022-11-11T18:43:37;28.70;45.10
55771;DHT22;41687;-33.234;-60.334;2022-11-11T18:46:28;28.70;44.80
55771;DHT22;41687;-33.234;-60.334;2022-11-11T18:49:15;28.60;45.00
55771;DHT22;41687;-33.234;-60.334;2022-11-11T18:52:01;28.60;45.30
55771;DHT22;41687;-33.234;-60.334;2022-11-11T18:54:47;28.60;45.30
55771;DHT22;41687;-33.234;-60.334;2022-11-11T18:57:33;28.60;45.60
55771;DHT22;41687;-33.234;-60.334;2022-11-11T19:00:20;28.60;45.30
55771;DHT22;41687;-33.234;-60.334;2022-11-11T19:03:06;28.50;45.20
55771;DHT22;41687;-33.234;-60.334;2022-11-11T19:05:52;28.40;45.10
55771;DHT22;41687;-33.234;-60.334;2022-11-11T19:08:41;28.50;45.40
55771;DHT22;41687;-33.234;-60.334;2022-11-11T19:11:28;28.50;45.30
55771;DHT22;41687;-33.234;-60.334;2022-11-11T19:14:17;28.60;44.80
55771;DHT22;41687;-33.234;-60.334;2022-11-11T19:17:04;28.40;44.60
55771;DHT22;41687;-33.234;-60.334;2022-11-11T19:19:50;28.40;44.50
55771;DHT22;41687;-33.234;-60.334;2022-11-11T19:22:39;28.50;45.30
55771;DHT22;41687;-33.234;-60.334;2022-11-11T19:25:25;28.40;44.70
55771;DHT22;41687;-33.234;-60.334;2022-11-11T19:28:12;28.50;45.20
55771;DHT22;41687;-33.234;-60.334;2022-11-11T19:31:09;28.60;45.40
55771;DHT22;41687;-33.234;-60.334;2022-11-11T19:33:56;28.60;45.10
55771;DHT22;41687;-33.234;-60.334;2022-11-11T19:36:43;28.60;44.40
55771;DHT22;41687;-33.234;-60.334;2022-11-11T19:39:29;28.60;44.10
55771;DHT22;41687;-33.234;-60.334;2022-11-11T19:42:15;28.60;44.80